• Join FlightAware (Why Join?)
  • Login
  • US Flag 
01:53PM EDT


 

Airport Tracker/Info


-or-


 

Live Flight TrackerFlight Track Log ✈ N1484B ✈ 03-Oct-2013 ✈ KLGB - KPRC

Flight Track Log - Related Links

Times and Time Zones

All times are in EDT time to prevent confusion due to time zone crossing. See the N1484B flight status page for this flight to view local times or setup timezone preferences in your user account.

Time Position Orientation Groundspeed Altitude Reporting Facility
EDT Latitude Longitude Course Direction KTS MPH feet Rate Location/Type
11:03PM 33.8167 -118.1833 220° Southwest 75 86 600  Level Southern California TRACON
11:04PM 33.8000 -118.2000 220° Southwest 83 96 1,200 540 Climbing Southern California TRACON
11:05PM 33.7833 -118.2167 220° Southwest 98 113 1,700 540 Climbing Southern California TRACON
11:06PM 33.7775 -118.1861 103° East 86 99 2,400 480 Climbing Los Angeles Center
11:07PM 33.7739 -118.1628 101° East 72 83 2,900 480 Climbing Los Angeles Center
11:08PM 33.7744 -118.1353 89° East 69 79 3,500 540 Climbing Los Angeles Center
11:09PM 33.7667 -118.1167 117° Southeast 75 86 3,900 420 Climbing Southern California TRACON
11:10PM 33.7500 -118.1167 180° South 88 101 4,300 300 Climbing Southern California TRACON
11:11PM 33.7333 -118.1333 220° Southwest 73 84 4,600 300 Climbing Southern California TRACON
11:12PM 33.7500 -118.1167 40° Northeast 73 84 4,900 300 Climbing Southern California TRACON
11:13PM 33.7500 -118.1000 90° East 80 92 5,300 300 Climbing Southern California TRACON
11:14PM 33.7667 -118.0667 59° Northeast 77 89 5,600 300 Climbing Southern California TRACON
11:15PM 33.7833 -118.0500 40° Northeast 87 100 6,000 360 Climbing Southern California TRACON
11:16PM 33.7667 -118.0167 121° Southeast 98 113 6,400 300 Climbing Southern California TRACON
11:17PM 33.7833 -117.9833 59° Northeast 113 130 6,700 300 Climbing Southern California TRACON
11:18PM 33.7667 -117.9500 121° Southeast 84 97 7,000 300 Climbing Southern California TRACON
11:19PM 33.7667 -117.9333 90° East 90 104 7,400 360 Climbing Southern California TRACON
11:20PM 33.7833 -117.9000 59° Northeast 92 106 7,700 240 Climbing Southern California TRACON
11:21PM 33.7667 -117.8667 121° Southeast 95 109 7,900 180 Climbing Southern California TRACON
11:22PM 33.7667 -117.8333 90° East 97 112 8,100 240 Climbing Southern California TRACON
11:23PM 33.7667 -117.8000 90° East 93 107 8,500 300 Climbing Southern California TRACON
11:24PM 33.7667 -117.7667 90° East 98 113 8,700 240 Climbing Southern California TRACON
11:25PM 33.7667 -117.7333 90° East 98 113 9,000 180 Climbing Southern California TRACON
11:26PM 33.7500 -117.7000 121° Southeast 100 115 9,200 240 Climbing Southern California TRACON
11:27PM 33.7500 -117.6667 90° East 99 114 9,500 240 Climbing Southern California TRACON
11:28PM 33.7500 -117.6333 90° East 93 107 9,700 120 Climbing Southern California TRACON
11:29PM 33.7486 -117.6158 95° East 96 110 9,800 120 Climbing Los Angeles Center
11:30PM 33.7450 -117.5750 96° East 102 117 10,000 180 Climbing Los Angeles Center
11:31PM 33.7425 -117.5475 96° East 103 119 10,200 180 Climbing Los Angeles Center
11:32PM 33.7381 -117.5072 98° East 102 117 10,400 180 Climbing Los Angeles Center
11:33PM 33.7361 -117.4736 94° East 100 115 10,600 120 Climbing Los Angeles Center
11:34PM 33.7342 -117.4411 94° East 99 114 10,700 60 Climbing Los Angeles Center
11:35PM 33.7306 -117.4075 97° East 102 117 10,800 60 Climbing Los Angeles Center
11:36PM 33.7289 -117.3736 93° East 100 115 10,900 60 Climbing Los Angeles Center
11:37PM 33.7258 -117.3392 96° East 104 120 11,000  Climbing Los Angeles Center
11:38PM 33.7206 -117.2883 97° East 128 147 11,000  Level Los Angeles Center
11:39PM 33.7164 -117.2442 96° East 133 153 11,000  Level Los Angeles Center
11:40PM 33.7111 -117.2008 98° East 133 153 11,000  Level Los Angeles Center
11:41PM 33.7078 -117.1642 96° East 136 157 11,000 -60 Level Los Angeles Center
11:42PM 33.7033 -117.1122 96° East 131 151 10,900 -60 Descending Los Angeles Center
11:43PM 33.7022 -117.0717 92° East 124 143 10,900  Level Los Angeles Center
11:44PM 33.7042 -117.0289 87° East 129 148 10,900 60 Level Los Angeles Center
11:45PM 33.7011 -116.9792 94° East 125 144 11,100 60 Climbing Los Angeles Center
11:46PM 33.6972 -116.9378 96° East 125 144 11,100  Level Los Angeles Center
11:47PM 33.6928 -116.8942 97° East 132 152 11,100 -60 Level Los Angeles Center
11:48PM 33.6881 -116.8433 96° East 134 154 11,000 -60 Descending Los Angeles Center
11:49PM 33.6858 -116.7983 93° East 135 155 11,000  Level Los Angeles Center
11:50PM 33.6817 -116.7539 96° East 134 154 11,000  Level Los Angeles Center
11:51PM 33.6778 -116.7019 95° East 131 151 11,000  Level Los Angeles Center
11:52PM 33.6742 -116.6583 96° East 131 151 11,000  Level Los Angeles Center
11:53PM 33.6697 -116.6147 97° East 131 151 11,000  Level Los Angeles Center
11:54PM 33.6675 -116.5781 94° East 133 153 11,000  Level Los Angeles Center
11:55PM 33.6619 -116.5228 97° East 136 157 11,000  Level Los Angeles Center
11:56PM 33.6589 -116.4772 95° East 137 158 11,000 -60 Level Los Angeles Center
11:57PM 33.6544 -116.4322 97° East 137 158 10,900 -60 Descending Los Angeles Center
11:59PM 33.6503 -116.3861 96° East 137 158 10,900  Level Los Angeles Center
12:00AM 33.6442 -116.3233 97° East 137 158 10,900  Level Los Angeles Center
12:01AM 33.6408 -116.2775 95° East 137 158 10,900  Level Los Angeles Center
12:02AM 33.6375 -116.2406 96° East 137 158 10,900  Level Los Angeles Center
12:03AM 33.6322 -116.1853 97° East 139 160 10,900  Level Los Angeles Center
12:04AM 33.6408 -116.1492 74° East 130 150 10,900  Level Los Angeles Center
12:05AM 33.6689 -116.1294 30° Northeast 120 138 10,900  Level Los Angeles Center
12:06AM 33.6894 -116.1000 50° Northeast 116 133 10,900  Level Los Angeles Center
12:07AM 33.7108 -116.0678 51° Northeast 118 136 10,900  Level Los Angeles Center
12:08AM 33.7378 -116.0281 51° Northeast 125 144 10,900  Level Los Angeles Center
12:09AM 33.7583 -115.9972 51° Northeast 122 140 10,900  Level Los Angeles Center
12:10AM 33.7794 -115.9647 52° Northeast 122 140 10,900  Level Los Angeles Center
12:11AM 33.8008 -115.9333 51° Northeast 122 140 10,900  Level Los Angeles Center
12:12AM 33.8242 -115.9008 49° Northeast 125 144 10,900  Level Los Angeles Center
12:13AM 33.8442 -115.8711 51° Northeast 120 138 10,900  Level Los Angeles Center
12:14AM 33.8639 -115.8411 52° Northeast 116 133 10,900  Level Los Angeles Center
12:15AM 33.8869 -115.8075 50° Northeast 122 140 10,900  Level Los Angeles Center
12:16AM 33.9122 -115.7681 52° Northeast 125 144 10,900  Level Los Angeles Center
12:17AM 33.9258 -115.7467 53° Northeast 115 132 10,900  Level Los Angeles Center
12:18AM 33.9511 -115.7097 50° Northeast 115 132 10,900  Level Los Angeles Center
12:19AM 33.9769 -115.6744 49° Northeast 128 147 10,900  Level Los Angeles Center
12:20AM 33.9981 -115.6406 53° Northeast 130 150 10,900  Level Los Angeles Center
12:21AM 34.0181 -115.6092 52° Northeast 124 143 10,900  Level Los Angeles Center
12:22AM 34.0392 -115.5783 50° Northeast 121 139 10,900  Level Los Angeles Center
12:23AM 34.0622 -115.5444 51° Northeast 126 145 10,900  Level Los Angeles Center
12:24AM 34.0856 -115.5114 50° Northeast 129 148 10,900  Level Los Angeles Center
12:25AM 34.1147 -115.4675 51° Northeast 138 159 10,900  Level Los Angeles Center
12:26AM 34.1403 -115.4292 51° Northeast 143 165 10,900  Level Los Angeles Center
12:27AM 34.1622 -115.3936 53° Northeast 139 160 10,900  Level Los Angeles Center
12:28AM 34.1850 -115.3608 50° Northeast 130 150 10,900  Level Los Angeles Center
12:29AM 34.2061 -115.3264 53° Northeast 128 147 10,900  Level Los Angeles Center
12:31AM 34.2325 -115.2875 51° Northeast 126 145 10,900  Level Los Angeles Center
12:32AM 34.2550 -115.2558 49° Northeast 126 145 10,900 60 Level Los Angeles Center
12:33AM 34.2769 -115.2217 52° Northeast 127 146 11,100 60 Climbing Los Angeles Center
12:34AM 34.2986 -115.1869 53° Northeast 128 147 11,100  Level Los Angeles Center
12:35AM 34.3256 -115.1472 51° Northeast 128 147 11,100  Level Los Angeles Center
12:36AM 34.3486 -115.1142 50° Northeast 128 147 11,100 -60 Level Los Angeles Center
12:37AM 34.3653 -115.0753 63° Northeast 127 146 11,000 -60 Descending Los Angeles Center
12:38AM 34.3803 -115.0342 66° East 131 151 11,000  Level Los Angeles Center
12:39AM 34.3950 -114.9928 67° East 130 150 11,100  Climbing Los Angeles Center
12:40AM 34.4094 -114.9506 67° East 133 153 11,100  Level Los Angeles Center
12:41AM 34.4242 -114.9100 66° East 133 153 11,100  Level Los Angeles Center
12:42AM 34.4392 -114.8689 66° East 133 153 11,100  Level Los Angeles Center
12:43AM 34.4536 -114.8269 67° East 134 154 11,100  Level Los Angeles Center
12:44AM 34.4683 -114.7856 67° East 134 154 11,100  Level Los Angeles Center
12:45AM 34.4822 -114.7456 67° East 131 151 11,100  Level Los Angeles Center
12:46AM 34.4983 -114.7003 67° East 125 144 11,100  Level Los Angeles Center
12:47AM 34.5142 -114.6583 65° Northeast 132 152 11,100  Level Los Angeles Center
12:48AM 34.5294 -114.6150 67° East 138 159 11,100  Level Los Angeles Center
12:49AM 34.5450 -114.5708 67° East 142 163 11,100  Level Los Angeles Center
12:50AM 34.5600 -114.5283 67° East 139 160 11,100  Level Los Angeles Center
12:51AM 34.5736 -114.4867 68° East 136 157 11,100 -60 Level Los Angeles Center
12:52AM 34.5894 -114.4450 65° Northeast 136 157 11,000 -60 Descending Los Angeles Center
12:53AM 34.6039 -114.4047 66° East 132 152 11,000  Level Los Angeles Center
12:54AM 34.6172 -114.3650 68° East 129 148 11,100  Climbing Los Angeles Center
12:55AM 34.6311 -114.3244 67° East 130 150 11,100 -60 Level Los Angeles Center
12:56AM 34.6425 -114.2919 67° East 131 151 11,000  Descending Los Angeles Center
12:57AM 34.6619 -114.2336 68° East 132 152 11,100  Climbing Los Angeles Center
12:58AM 34.6761 -114.1931 67° East 131 151 11,100  Level Los Angeles Center
12:59AM 34.6908 -114.1500 67° East 137 158 11,100  Level Los Angeles Center
01:00AM 34.7069 -114.1056 66° East 142 163 11,100  Level Los Angeles Center
01:01AM 34.7217 -114.0642 67° East 135 155 11,100  Level Los Angeles Center
01:02AM 34.7344 -114.0233 69° East 130 150 11,100  Level Los Angeles Center
01:03AM 34.7492 -113.9811 67° East 133 153 11,100  Level Los Angeles Center
01:04AM 34.7544 -113.9358 82° East 134 154 11,100  Level Los Angeles Center
01:05AM 34.7519 -113.8894 94° East 138 159 11,100  Level Los Angeles Center
01:06AM 34.7511 -113.8519 92° East 138 159 11,100  Level Albuquerque Center
01:07AM 34.7494 -113.7978 92° East 136 157 11,100  Level Albuquerque Center
01:08AM 34.7478 -113.7542 93° East 132 152 11,100  Level Albuquerque Center
01:09AM 34.7467 -113.7128 92° East 125 144 11,100  Level Albuquerque Center
01:10AM 34.7461 -113.6689 91° East 128 147 11,100  Level Albuquerque Center
01:11AM 34.7447 -113.6233 92° East 133 153 11,100  Level Albuquerque Center
01:12AM 34.7444 -113.5792 90° East 133 153 11,100 -120 Level Albuquerque Center
01:13AM 34.7428 -113.5328 92° East 135 155 10,900 -120 Descending Albuquerque Center
01:14AM 34.7414 -113.4883 92° East 135 155 10,900  Level Albuquerque Center
01:15AM 34.7394 -113.4458 93° East 131 151 10,900  Level Albuquerque Center
01:16AM 34.7383 -113.4036 92° East 129 148 10,900  Level Albuquerque Center
01:17AM 34.7369 -113.3611 92° East 128 147 10,900  Level Albuquerque Center
01:18AM 34.7350 -113.3189 93° East 127 146 10,900  Level Albuquerque Center
01:19AM 34.7336 -113.2708 92° East 123 142 10,900  Level Albuquerque Center
01:20AM 34.7314 -113.2317 94° East 120 138 10,900  Level Albuquerque Center
01:21AM 34.7300 -113.1894 92° East 121 139 10,900  Level Albuquerque Center
01:22AM 34.7278 -113.1428 93° East 132 152 10,900  Level Albuquerque Center
01:23AM 34.7281 -113.1000 90° East 129 148 10,900  Level Albuquerque Center
01:24AM 34.7250 -113.0569 95° East 129 148 10,900  Level Albuquerque Center
01:25AM 34.7250 -113.0139 90° East 128 147 10,900  Level Albuquerque Center
01:26AM 34.7225 -112.9697 94° East 130 150 10,900  Level Albuquerque Center
01:27AM 34.7203 -112.9275 94° East 128 147 10,900  Level Albuquerque Center
01:29AM 34.7186 -112.8847 93° East 127 146 10,900  Level Albuquerque Center
01:30AM 34.7175 -112.8433 92° East 125 144 10,900  Level Albuquerque Center
01:31AM 34.7156 -112.8022 93° East 123 142 10,900  Level Albuquerque Center
01:32AM 34.7133 -112.7517 93° East 124 143 10,900  Level Albuquerque Center
01:33AM 34.7122 -112.7097 92° East 125 144 10,900  Level Albuquerque Center
01:34AM 34.7106 -112.6669 93° East 127 146 10,900  Level Albuquerque Center